Time;durP1;ratioP1;P1;durP2;ratioP2;P2;SDS_P1;SDS_P2;PMS_P1;PMS_P2;Temp;Humidity;BMP_temperature;BMP_pressure;BME280_temperature;BME280_humidity;BME280_pressure;Samples;Min_cycle;Max_cycle;Signal;HPM_P1;HPM_P2
2022/01/23 00:01:46;;;;;;;5.93;3.55;;;;;;;-7.56;100.00;93364.50;5070928;28;20088;-84
2022/01/23 00:04:13;;;;;;;6.03;3.95;;;;;;;-7.46;100.00;93359.75;5070933;28;20060;-86
2022/01/23 00:06:40;;;;;;;8.02;4.35;;;;;;;-7.44;100.00;93367.94;5070918;28;20049;-85
2022/01/23 00:09:07;;;;;;;7.75;4.43;;;;;;;-7.31;100.00;93375.44;5070909;28;20059;-86
2022/01/23 00:11:42;;;;;;;8.20;4.60;;;;;;;-7.17;100.00;93377.06;5071158;28;20048;-85
2022/01/23 00:19:34;;;;;;;11.23;6.35;;;;;;;-6.64;100.00;93394.47;5053570;28;20076;-84
2022/01/23 00:22:02;;;;;;;15.32;8.57;;;;;;;-6.48;100.00;93394.25;5070842;28;20048;-84
2022/01/23 00:32:42;;;;;;;23.30;12.25;;;;;;;-6.22;100.00;93401.72;5070857;28;19935;-85
2022/01/23 00:35:09;;;;;;;20.17;11.65;;;;;;;-6.21;100.00;93407.53;5070813;28;20430;-85
2022/01/23 00:37:36;;;;;;;19.83;11.73;;;;;;;-6.14;100.00;93410.38;5070599;28;20442;-85
2022/01/23 00:40:03;;;;;;;17.23;11.38;;;;;;;-6.09;100.00;93408.38;5070795;28;20446;-85
2022/01/23 00:42:31;;;;;;;17.80;9.27;;;;;;;-6.24;100.00;93376.03;5070665;28;20117;-85
2022/01/23 00:45:10;;;;;;;10.38;6.38;;;;;;;-6.13;100.00;93401.97;5070869;28;20475;-85
2022/01/23 00:47:37;;;;;;;12.15;7.88;;;;;;;-6.48;100.00;93405.97;5070435;28;20107;-85
2022/01/23 00:50:05;;;;;;;9.43;6.15;;;;;;;-6.67;100.00;93399.66;5072034;28;20075;-85
2022/01/23 00:52:31;;;;;;;12.55;6.40;;;;;;;-6.62;100.00;93397.66;5074627;28;20056;-84
2022/01/23 00:55:00;;;;;;;11.68;7.30;;;;;;;-6.83;100.00;93399.88;5074771;28;20052;-85
2022/01/23 00:57:27;;;;;;;8.23;6.07;;;;;;;-6.85;100.00;93391.69;5074882;28;20052;-84
2022/01/23 00:59:55;;;;;;;15.38;8.48;;;;;;;-6.61;100.00;93399.25;5074560;28;20052;-83
2022/01/23 01:02:22;;;;;;;21.98;12.63;;;;;;;-6.50;100.00;93402.75;5074383;28;20052;-83
2022/01/23 01:04:49;;;;;;;20.67;12.88;;;;;;;-6.39;100.00;93407.03;5074198;28;20052;-84
2022/01/23 01:07:15;;;;;;;16.70;10.30;;;;;;;-6.33;100.00;93399.13;5074264;28;20060;-83
2022/01/23 01:09:48;;;;;;;26.52;11.82;;;;;;;-6.19;100.00;93403.22;5074494;28;20049;-84
2022/01/23 01:12:19;;;;;;;29.02;14.80;;;;;;;-6.30;100.00;93371.41;5074361;28;20059;-85
2022/01/23 01:15:26;;;;;;;11.63;6.70;;;;;;;-6.23;100.00;93395.13;5074264;28;20045;-84
2022/01/23 01:31:39;;;;;;;57.28;28.23;;;;;;;-6.05;100.00;93397.28;5073883;28;20102;-84
2022/01/23 01:34:11;;;;;;;53.58;26.50;;;;;;;-5.98;100.00;93397.63;5073833;28;20143;-84
2022/01/23 01:36:46;;;;;;;35.65;19.25;;;;;;;-6.21;100.00;93360.03;5074000;28;20045;-84
2022/01/23 01:39:14;;;;;;;14.80;5.70;;;;;;;-6.32;100.00;93401.53;5073743;28;20048;-84
2022/01/23 01:41:42;;;;;;;18.77;7.40;;;;;;;-6.59;100.00;93394.97;5073732;28;20098;-84
2022/01/23 01:44:09;;;;;;;19.73;9.15;;;;;;;-6.46;100.00;93396.66;5073580;28;20098;-83
2022/01/23 01:46:36;;;;;;;66.63;31.50;;;;;;;-6.27;100.00;93386.22;5073869;28;20044;-84
2022/01/23 01:49:03;;;;;;;21.98;9.20;;;;;;;-6.14;100.00;93387.88;5073568;28;20487;-83
2022/01/23 01:51:33;;;;;;;19.08;6.88;;;;;;;-6.21;100.00;93377.53;5073507;28;20051;-83
2022/01/23 01:54:07;;;;;;;15.40;8.38;;;;;;;-6.13;100.00;93386.97;5073527;28;20063;-83
2022/01/23 01:56:40;;;;;;;17.50;8.18;;;;;;;-6.04;100.00;93386.38;5073468;28;20075;-83
2022/01/23 01:59:19;;;;;;;13.95;6.97;;;;;;;-5.94;100.00;93391.50;5073939;28;20056;-84
2022/01/23 02:10:11;;;;;;;42.55;18.73;;;;;;;-5.80;100.00;93381.34;5060095;28;20063;-84
2022/01/23 02:24:46;;;;;;;29.20;14.00;;;;;;;-5.88;100.00;93407.81;5073191;28;20079;-84
2022/01/23 02:52:00;;;;;;;30.55;12.13;;;;;;;-6.27;100.00;93406.22;5072560;28;20082;-85
2022/01/23 02:54:51;;;;;;;51.03;18.88;;;;;;;-6.14;100.00;93433.72;5072607;28;20079;-84
2022/01/23 02:57:31;;;;;;;492.65;209.70;;;;;;;-6.22;100.00;93421.72;5072429;28;20044;-85
2022/01/23 02:59:58;;;;;;;39.38;17.30;;;;;;;-6.24;100.00;93432.72;5072428;28;20047;-84
2022/01/23 03:02:32;;;;;;;39.08;18.27;;;;;;;-6.31;100.00;93432.31;5072543;28;20045;-84
2022/01/23 03:05:02;;;;;;;88.05;33.20;;;;;;;-6.35;100.00;93433.44;5072220;28;20483;-83
2022/01/23 03:10:19;;;;;;;52.03;23.52;;;;;;;-6.52;100.00;93425.34;5061543;28;20059;-84
2022/01/23 03:15:42;;;;;;;75.38;33.85;;;;;;;-6.54;100.00;93447.13;5070770;28;20152;-84
2022/01/23 03:26:51;;;;;;;20.10;8.75;;;;;;;-6.47;100.00;93443.31;5029568;28;20574;-84
2022/01/23 03:29:21;;;;;;;15.48;8.63;;;;;;;-6.37;100.00;93448.53;5056998;28;20064;-84
2022/01/23 03:32:11;;;;;;;22.73;8.20;;;;;;;-6.35;100.00;93453.44;5071681;28;20051;-85
2022/01/23 03:34:38;;;;;;;18.90;7.65;;;;;;;-6.29;100.00;93452.22;5071526;28;20048;-85
2022/01/23 03:37:05;;;;;;;17.73;7.25;;;;;;;-6.28;100.00;93454.63;5071810;28;20044;-86
2022/01/23 03:39:32;;;;;;;21.75;7.78;;;;;;;-6.34;100.00;93432.53;5071589;28;20048;-85
2022/01/23 03:42:00;;;;;;;14.88;6.65;;;;;;;-6.69;100.00;93423.94;5071350;28;20522;-86
2022/01/23 03:44:27;;;;;;;14.55;7.00;;;;;;;-6.67;100.00;93463.81;5071395;28;20056;-86
2022/01/23 03:47:14;;;;;;;14.60;6.30;;;;;;;-6.65;100.00;93465.34;5071301;28;20055;-85
2022/01/23 03:49:40;;;;;;;19.67;6.20;;;;;;;-6.72;100.00;93459.09;5071376;28;20075;-85
2022/01/23 03:52:10;;;;;;;11.57;6.07;;;;;;;-6.92;100.00;93463.69;5071720;28;20056;-86
2022/01/23 03:54:38;;;;;;;8.60;5.68;;;;;;;-6.89;100.00;93477.69;5071273;28;20052;-85
2022/01/23 03:57:08;;;;;;;10.57;6.20;;;;;;;-7.35;100.00;93477.19;5071467;28;20051;-85
2022/01/23 03:59:36;;;;;;;11.57;7.50;;;;;;;-7.57;100.00;93470.19;5071312;28;20056;-85
2022/01/23 04:02:03;;;;;;;10.00;5.82;;;;;;;-7.98;100.00;93451.84;5071457;28;20052;-85
2022/01/23 04:04:40;;;;;;;12.93;8.25;;;;;;;-7.75;100.00;93470.41;5071602;28;20063;-85
2022/01/23 04:07:09;;;;;;;19.05;11.18;;;;;;;-7.86;100.00;93475.25;5071501;28;20048;-86
2022/01/23 04:09:36;;;;;;;12.02;7.57;;;;;;;-7.81;100.00;93475.78;5071265;28;20059;-85
2022/01/23 04:12:05;;;;;;;15.73;9.02;;;;;;;-8.00;100.00;93456.94;5071041;28;20048;-85
2022/01/23 04:14:35;;;;;;;96.82;33.60;;;;;;;-7.93;100.00;93472.31;5071051;28;20442;-86
2022/01/23 04:17:32;;;;;;;24.83;11.73;;;;;;;-7.98;100.00;93460.13;5071553;28;20127;-86
2022/01/23 04:20:04;;;;;;;45.58;17.50;;;;;;;-7.80;100.00;93480.69;5070976;28;20049;-86
2022/01/23 04:33:47;;;;;;;23.92;12.20;;;;;;;-7.31;100.00;93480.28;5060145;28;20064;-86
2022/01/23 05:00:59;;;;;;;34.88;19.67;;;;;;;-6.60;100.00;93517.50;5077339;28;20548;-85
2022/01/23 05:06:21;;;;;;;29.73;16.67;;;;;;;-6.58;100.00;93511.50;5071316;28;20452;-85
2022/01/23 05:08:48;;;;;;;29.17;16.45;;;;;;;-6.55;100.00;93518.00;5063250;28;20045;-86
2022/01/23 05:11:15;;;;;;;22.67;14.27;;;;;;;-6.90;100.00;93504.34;5070254;28;20388;-84
2022/01/23 05:13:42;;;;;;;23.65;13.75;;;;;;;-6.90;100.00;93526.81;5070001;28;20494;-85
2022/01/23 05:16:10;;;;;;;34.45;16.83;;;;;;;-6.90;100.00;93526.03;5064640;28;20049;-86
2022/01/23 05:18:39;;;;;;;27.38;15.85;;;;;;;-7.14;100.00;93487.50;5067224;28;20042;-86
2022/01/23 05:21:19;;;;;;;28.83;15.23;;;;;;;-6.91;100.00;93529.44;5070388;28;20048;-85
2022/01/23 05:23:46;;;;;;;25.35;14.57;;;;;;;-6.91;100.00;93531.94;5070324;28;20064;-85
2022/01/23 05:26:13;;;;;;;27.23;15.10;;;;;;;-6.90;100.00;93533.53;5070410;28;20047;-86
2022/01/23 05:28:40;;;;;;;25.80;15.32;;;;;;;-6.96;100.00;93528.94;5070492;28;20414;-85
2022/01/23 05:31:07;;;;;;;37.45;20.42;;;;;;;-7.17;100.00;93530.13;5070293;28;20051;-87
2022/01/23 05:33:34;;;;;;;22.80;13.05;;;;;;;-7.18;100.00;93517.78;5070149;28;20060;-86
2022/01/23 05:36:02;;;;;;;21.45;12.65;;;;;;;-7.18;100.00;93522.75;5068772;28;20056;-85
2022/01/23 05:38:29;;;;;;;26.13;13.65;;;;;;;-7.19;100.00;93519.44;5073733;28;20487;-85
2022/01/23 05:40:57;;;;;;;24.88;14.27;;;;;;;-7.17;100.00;93524.34;5073932;28;20052;-84
2022/01/23 05:43:25;;;;;;;20.85;12.15;;;;;;;-7.30;100.00;93506.84;5074324;28;20514;-87
2022/01/23 05:45:52;;;;;;;21.42;12.43;;;;;;;-7.34;100.00;93516.22;5073709;28;20102;-87
2022/01/23 05:48:20;;;;;;;24.95;14.27;;;;;;;-7.20;100.00;93522.84;5074013;28;20114;-85
2022/01/23 05:50:49;;;;;;;27.15;15.35;;;;;;;-7.24;100.00;93518.94;5073935;28;20080;-85
2022/01/23 05:53:17;;;;;;;35.25;23.02;;;;;;;-7.29;100.00;93515.91;5059893;28;20037;-85
2022/01/23 05:55:44;;;;;;;58.47;30.20;;;;;;;-7.23;100.00;93535.50;5053430;28;20056;-85
2022/01/23 05:58:11;;;;;;;49.97;26.80;;;;;;;-7.45;99.74;93529.31;5053614;28;20049;-86
2022/01/23 06:00:37;;;;;;;58.47;32.35;;;;;;;-7.77;99.53;93499.66;5053790;28;20099;-86
2022/01/23 06:03:04;;;;;;;58.38;32.63;;;;;;;-7.57;100.00;93543.34;5053494;28;20052;-87
2022/01/23 06:05:31;;;;;;;55.33;30.13;;;;;;;-7.62;100.00;93540.31;5053931;28;20053;-85
2022/01/23 06:07:58;;;;;;;53.45;29.77;;;;;;;-7.65;100.00;93540.50;5053365;28;20470;-85
2022/01/23 06:10:28;;;;;;;58.13;29.52;;;;;;;-7.71;100.00;93534.19;5053141;28;20440;-86
2022/01/23 06:12:55;;;;;;;49.60;27.77;;;;;;;-7.76;100.00;93533.66;5053120;28;20095;-87
2022/01/23 06:15:22;;;;;;;56.90;30.85;;;;;;;-7.66;100.00;93547.19;5053199;28;20045;-86
2022/01/23 06:17:49;;;;;;;62.17;32.75;;;;;;;-7.74;100.00;93536.84;5053181;28;20064;-85
2022/01/23 06:20:16;;;;;;;71.32;38.70;;;;;;;-7.74;100.00;93549.31;5053400;28;20049;-87
2022/01/23 06:22:45;;;;;;;77.70;43.45;;;;;;;-7.80;100.00;93554.69;5052902;28;20061;-85
2022/01/23 06:25:14;;;;;;;80.38;46.60;;;;;;;-7.75;100.00;93557.72;5052924;28;20048;-86
2022/01/23 06:27:43;;;;;;;84.50;44.20;;;;;;;-7.95;99.70;93547.22;5052852;28;20488;-86
2022/01/23 06:30:11;;;;;;;121.82;61.92;;;;;;;-7.88;100.00;93559.31;5052970;28;20045;-85
2022/01/23 06:32:38;;;;;;;114.20;56.13;;;;;;;-7.81;100.00;93561.38;5057739;28;20053;-86
2022/01/23 06:35:06;;;;;;;118.70;64.53;;;;;;;-7.88;100.00;93564.31;5072929;28;20449;-87
2022/01/23 06:37:33;;;;;;;103.82;55.25;;;;;;;-7.85;100.00;93569.09;5072889;28;20048;-85
2022/01/23 06:40:00;;;;;;;85.05;48.17;;;;;;;-7.90;100.00;93566.88;5072766;28;20057;-86
2022/01/23 06:42:27;;;;;;;100.68;60.67;;;;;;;-8.30;99.43;93551.75;5072707;28;20052;-85
2022/01/23 06:44:57;;;;;;;99.68;59.33;;;;;;;-8.05;100.00;93581.06;5078135;28;20048;-86
2022/01/23 06:47:24;;;;;;;148.32;79.47;;;;;;;-8.03;100.00;93569.28;5091950;28;20396;-87
2022/01/23 06:49:51;;;;;;;25.65;16.30;;;;;;;-7.96;100.00;93560.56;5073604;28;20060;-88
2022/01/23 06:52:19;;;;;;;64.50;35.90;;;;;;;-7.84;100.00;93573.19;5072416;28;20094;-86
2022/01/23 06:54:45;;;;;;;77.68;41.63;;;;;;;-7.68;100.00;93571.41;5072591;28;20060;-87
2022/01/23 06:57:12;;;;;;;71.35;41.35;;;;;;;-7.63;99.91;93563.69;5072447;28;20106;-87
2022/01/23 06:59:39;;;;;;;64.78;36.10;;;;;;;-7.40;100.00;93576.47;5072313;28;20045;-88
2022/01/23 07:02:07;;;;;;;57.63;33.22;;;;;;;-7.19;100.00;93581.88;5072178;28;20045;-87
2022/01/23 07:04:34;;;;;;;58.00;33.47;;;;;;;-7.06;99.76;93564.44;5072382;28;20446;-87
2022/01/23 07:07:01;;;;;;;46.60;26.63;;;;;;;-7.33;96.77;93550.25;5073238;28;20052;-86
2022/01/23 07:09:28;;;;;;;69.03;39.38;;;;;;;-7.11;99.18;93567.22;5072135;28;20090;-87
2022/01/23 07:11:55;;;;;;;77.88;42.20;;;;;;;-7.03;99.61;93543.47;5072340;28;20070;-87
2022/01/23 07:14:21;;;;;;;84.65;45.65;;;;;;;-6.71;99.60;93568.16;5071811;28;20044;-87
2022/01/23 07:16:48;;;;;;;93.35;51.10;;;;;;;-6.54;98.27;93572.09;5060859;28;20102;-88
2022/01/23 07:19:17;;;;;;;79.40;41.45;;;;;;;-6.50;97.69;93560.19;5052143;28;20114;-87
2022/01/23 07:21:43;;;;;;;66.97;36.92;;;;;;;-6.29;97.38;93574.72;5051902;28;20099;-86
2022/01/23 07:24:10;;;;;;;63.72;34.38;;;;;;;-6.24;95.52;93587.72;5051803;28;20045;-87
2022/01/23 07:26:37;;;;;;;70.97;38.03;;;;;;;-6.16;96.21;93583.03;5051849;28;20057;-86
2022/01/23 07:29:05;;;;;;;78.30;45.08;;;;;;;-6.24;96.21;93548.53;5051835;28;20049;-86
2022/01/23 07:34:20;;;;;;;68.50;38.17;;;;;;;-6.14;96.35;93541.22;5044218;28;20500;-87
2022/01/23 07:36:47;;;;;;;66.82;36.03;;;;;;;-5.95;95.05;93565.81;5051646;28;20077;-86
2022/01/23 07:39:14;;;;;;;68.88;36.65;;;;;;;-5.80;95.48;93575.69;5052098;28;20049;-87
2022/01/23 07:41:41;;;;;;;71.95;41.10;;;;;;;-5.68;95.18;93584.91;5051628;28;20102;-87
2022/01/23 07:44:08;;;;;;;58.67;31.25;;;;;;;-5.71;92.27;93579.28;5051452;28;20582;-87
2022/01/23 07:46:35;;;;;;;64.13;36.58;;;;;;;-5.64;94.66;93583.78;5051389;28;20064;-86
2022/01/23 07:49:01;;;;;;;65.38;37.15;;;;;;;-5.55;95.81;93577.38;5051392;28;20053;-86
2022/01/23 07:51:30;;;;;;;66.38;37.08;;;;;;;-5.50;96.86;93567.84;5051613;28;20045;-86
2022/01/23 07:53:56;;;;;;;56.78;30.45;;;;;;;-5.38;95.46;93576.25;5051438;28;20053;-86
2022/01/23 07:56:23;;;;;;;34.03;17.73;;;;;;;-5.90;95.41;93595.53;5051369;28;20055;-85
2022/01/23 07:58:50;;;;;;;33.33;17.65;;;;;;;-6.22;99.36;93595.94;5051173;28;20057;-85
2022/01/23 08:01:17;;;;;;;31.25;16.92;;;;;;;-6.02;100.00;93589.59;5065442;28;20481;-87
2022/01/23 08:03:43;;;;;;;33.35;16.00;;;;;;;-5.86;99.32;93594.44;5071444;28;20052;-86
2022/01/23 08:06:12;;;;;;;24.88;12.02;;;;;;;-5.73;99.47;93594.44;5071102;28;20552;-85
2022/01/23 08:08:40;;;;;;;33.83;14.73;;;;;;;-6.35;98.76;93489.22;5071019;28;20434;-85
2022/01/23 08:11:08;;;;;;;34.95;17.27;;;;;;;-5.38;97.41;93595.47;5070938;28;20052;-85
2022/01/23 08:13:35;;;;;;;31.17;18.65;;;;;;;-5.30;97.48;93590.75;5071319;28;20052;-85
2022/01/23 08:16:02;;;;;;;32.40;19.13;;;;;;;-5.37;95.83;93594.59;5071048;28;20059;-84
2022/01/23 08:18:29;;;;;;;35.83;17.75;;;;;;;-5.32;97.02;93595.09;5071949;28;20091;-82
2022/01/23 08:20:55;;;;;;;35.63;19.13;;;;;;;-5.10;96.33;93596.91;5071191;28;20525;-86
2022/01/23 08:23:22;;;;;;;34.55;19.77;;;;;;;-4.98;97.07;93584.44;5070984;28;20056;-85
2022/01/23 08:25:51;;;;;;;40.58;19.42;;;;;;;-4.97;95.65;93594.38;5070807;28;20045;-84
2022/01/23 08:28:18;;;;;;;36.88;17.80;;;;;;;-5.06;96.65;93595.00;5070584;28;20044;-85
2022/01/23 08:30:44;;;;;;;38.60;18.58;;;;;;;-4.93;97.03;93592.44;5070704;28;20049;-84
2022/01/23 08:33:11;;;;;;;38.33;17.23;;;;;;;-4.78;96.16;93583.06;5068833;28;20071;-83
2022/01/23 08:35:40;;;;;;;33.33;17.73;;;;;;;-4.64;95.61;93601.38;5070685;28;20049;-83
2022/01/23 08:38:08;;;;;;;35.80;17.88;;;;;;;-4.71;95.40;93593.47;5070632;28;20068;-84
2022/01/23 08:40:47;;;;;;;36.92;17.95;;;;;;;-4.49;96.03;93596.97;5070689;28;20161;-83
2022/01/23 08:43:17;;;;;;;32.55;15.63;;;;;;;-4.48;94.64;93591.88;5070717;28;20053;-82
2022/01/23 08:45:45;;;;;;;35.65;14.63;;;;;;;-4.76;94.33;93601.31;5070544;28;20052;-83
2022/01/23 08:48:12;;;;;;;34.92;14.52;;;;;;;-4.61;95.76;93601.94;5070530;28;20048;-83
2022/01/23 08:50:39;;;;;;;31.88;14.63;;;;;;;-4.61;94.57;93609.47;5070501;28;20064;-83
2022/01/23 08:53:06;;;;;;;34.85;16.95;;;;;;;-4.67;95.92;93584.84;5070528;28;20094;-83
2022/01/23 08:55:33;;;;;;;31.10;15.07;;;;;;;-4.56;95.74;93609.94;5071330;28;20052;-84
2022/01/23 08:58:00;;;;;;;27.77;14.43;;;;;;;-4.58;95.83;93596.69;5070705;28;20052;-84
2022/01/23 09:00:28;;;;;;;23.02;12.63;;;;;;;-4.54;95.96;93599.00;5070705;28;20075;-83
2022/01/23 09:02:56;;;;;;;20.70;10.32;;;;;;;-4.51;94.42;93597.09;5070257;28;20053;-83
2022/01/23 09:05:23;;;;;;;13.20;8.05;;;;;;;-4.52;95.05;93610.53;5070702;28;20227;-84
2022/01/23 09:07:50;;;;;;;14.95;8.70;;;;;;;-4.43;95.37;93611.59;5070715;28;20045;-83
2022/01/23 09:10:24;;;;;;;17.85;10.27;;;;;;;-4.41;95.01;93616.50;5070585;28;20053;-84
2022/01/23 09:13:04;;;;;;;18.67;10.40;;;;;;;-4.46;95.27;93611.78;5074349;28;20094;-83
2022/01/23 09:15:33;;;;;;;24.10;11.05;;;;;;;-4.47;95.09;93613.50;5074592;28;20066;-85
2022/01/23 09:18:03;;;;;;;19.70;8.52;;;;;;;-4.95;94.57;93566.72;5058793;28;20098;-84
2022/01/23 09:20:30;;;;;;;17.13;9.30;;;;;;;-4.62;95.24;93615.41;5057643;28;20065;-84
2022/01/23 09:22:57;;;;;;;19.52;8.68;;;;;;;-4.68;95.49;93607.50;5054327;28;20049;-84
2022/01/23 09:25:24;;;;;;;14.55;6.95;;;;;;;-4.87;95.88;93603.75;5054669;28;20048;-84
2022/01/23 09:27:51;;;;;;;14.60;7.15;;;;;;;-5.32;95.03;93600.09;5054075;28;20049;-84
2022/01/23 09:30:20;;;;;;;12.30;6.63;;;;;;;-5.31;95.46;93596.69;5054127;28;20411;-85
2022/01/23 09:32:50;;;;;;;14.68;8.15;;;;;;;-5.25;96.49;93592.94;5054662;28;20411;-85
2022/01/23 09:35:18;;;;;;;17.67;8.82;;;;;;;-5.11;95.86;93587.00;5054198;28;20095;-83
2022/01/23 09:37:45;;;;;;;13.77;6.25;;;;;;;-5.16;95.35;93597.34;5054139;28;20052;-84
2022/01/23 09:40:13;;;;;;;21.63;10.57;;;;;;;-5.13;95.49;93593.81;5053893;28;20049;-85
2022/01/23 09:42:47;;;;;;;27.17;12.77;;;;;;;-5.09;95.18;93595.22;5056899;28;20098;-86
2022/01/23 09:45:15;;;;;;;21.45;10.73;;;;;;;-5.09;95.62;93585.19;5081384;28;20048;-83
2022/01/23 09:47:43;;;;;;;12.95;7.82;;;;;;;-4.98;94.79;93596.97;5088459;28;20052;-83
2022/01/23 09:50:14;;;;;;;9.68;5.95;;;;;;;-5.04;93.71;93585.69;5093986;28;20044;-83
2022/01/23 09:52:41;;;;;;;10.50;5.78;;;;;;;-5.27;94.67;93588.03;5093789;28;20044;-82
2022/01/23 09:55:11;;;;;;;12.82;7.63;;;;;;;-5.15;95.23;93580.59;5085600;28;20048;-83
2022/01/23 09:57:40;;;;;;;10.18;6.43;;;;;;;-5.23;95.08;93574.41;5073438;28;20044;-84
2022/01/23 10:00:11;;;;;;;11.55;6.28;;;;;;;-5.27;94.77;93557.97;5073123;28;20044;-83
2022/01/23 10:02:38;;;;;;;9.77;4.95;;;;;;;-5.21;94.65;93573.50;5073614;28;20052;-82
2022/01/23 10:05:06;;;;;;;8.63;5.60;;;;;;;-5.28;95.34;93565.63;5073059;28;20049;-84
2022/01/23 10:07:37;;;;;;;9.48;5.40;;;;;;;-5.24;95.52;93565.28;5073253;28;20044;-83
2022/01/23 10:10:10;;;;;;;9.57;5.80;;;;;;;-5.14;94.81;93562.94;5073363;28;20052;-83
2022/01/23 10:12:40;;;;;;;10.98;6.68;;;;;;;-5.24;94.99;93562.78;5073139;28;20470;-84
2022/01/23 10:15:08;;;;;;;10.00;5.93;;;;;;;-5.29;95.07;93543.97;5073512;28;20134;-84
2022/01/23 10:17:35;;;;;;;9.27;5.78;;;;;;;-5.28;93.99;93563.91;5073118;28;20040;-84
2022/01/23 10:20:02;;;;;;;9.00;5.78;;;;;;;-5.28;93.72;93558.09;5078073;28;20040;-85
2022/01/23 10:22:30;;;;;;;8.45;5.47;;;;;;;-5.29;94.13;93559.81;5091902;28;20083;-85
2022/01/23 10:25:07;;;;;;;9.23;5.63;;;;;;;-5.04;93.79;93549.81;5090978;28;20113;-84
2022/01/23 10:27:57;;;;;;;12.18;6.10;;;;;;;-5.05;93.12;93563.25;5093379;28;20052;-83
2022/01/23 10:30:26;;;;;;;11.93;5.93;;;;;;;-4.93;91.67;93554.88;5093315;28;20135;-82
2022/01/23 10:33:03;;;;;;;9.52;5.53;;;;;;;-5.04;90.51;93555.63;5093181;28;20048;-84
2022/01/23 10:35:30;;;;;;;11.18;6.32;;;;;;;-4.97;92.48;93556.78;5092974;28;20052;-84
2022/01/23 10:38:06;;;;;;;11.63;6.13;;;;;;;-4.84;92.37;93535.88;5092917;28;20077;-84
2022/01/23 10:40:37;;;;;;;9.30;5.93;;;;;;;-5.12;90.50;93531.09;5093061;28;20055;-84
2022/01/23 10:48:40;;;;;;;7.05;4.93;;;;;;;-5.05;88.98;93525.66;5093165;28;20170;-83
2022/01/23 10:51:25;;;;;;;9.57;5.65;;;;;;;-5.01;88.63;93525.34;5092827;28;20052;-84
2022/01/23 10:54:09;;;;;;;8.05;4.72;;;;;;;-5.28;86.79;93528.84;5093094;28;20421;-83
2022/01/23 10:56:40;;;;;;;6.97;4.38;;;;;;;-5.02;85.92;93521.22;5083716;28;20049;-85
2022/01/23 10:59:09;;;;;;;7.75;4.18;;;;;;;-4.81;86.45;93518.13;5071824;28;20048;-84
2022/01/23 11:01:37;;;;;;;6.05;3.88;;;;;;;-4.78;84.35;93520.41;5072227;28;20044;-85
2022/01/23 11:04:10;;;;;;;8.70;3.83;;;;;;;-4.62;85.04;93516.81;5072020;28;20490;-84
2022/01/23 11:06:55;;;;;;;7.88;3.92;;;;;;;-4.61;84.17;93499.16;5072082;28;20052;-86
2022/01/23 11:09:29;;;;;;;6.78;4.05;;;;;;;-4.47;84.88;93510.72;5072220;28;20045;-84
2022/01/23 11:12:13;;;;;;;9.90;5.05;;;;;;;-4.25;83.93;93493.28;5071920;28;20056;-84
2022/01/23 11:17:25;;;;;;;6.65;4.28;;;;;;;-4.88;83.06;93490.19;5027625;28;20100;-83
2022/01/23 11:19:57;;;;;;;6.50;3.90;;;;;;;-4.87;85.06;93503.50;5071889;28;20044;-83
2022/01/23 11:22:28;;;;;;;5.78;3.83;;;;;;;-4.93;84.53;93496.44;5072020;28;20052;-83
2022/01/23 11:24:59;;;;;;;12.65;5.13;;;;;;;-4.70;85.33;93472.25;5071730;28;20053;-82
2022/01/23 11:27:34;;;;;;;10.40;4.63;;;;;;;-4.64;85.38;93468.50;5071691;28;20048;-83
2022/01/23 11:30:09;;;;;;;11.20;4.77;;;;;;;-4.48;87.14;93479.03;5071968;28;20044;-82
2022/01/23 11:32:42;;;;;;;10.77;4.55;;;;;;;-4.67;85.85;93458.69;5071634;28;20139;-87
2022/01/23 11:35:15;;;;;;;15.20;5.68;;;;;;;-4.51;86.51;93475.91;5072222;28;20153;-85
2022/01/23 11:37:49;;;;;;;13.73;6.03;;;;;;;-4.50;87.37;93455.75;5071569;28;20055;-84
2022/01/23 11:54:14;;;;;;;15.77;5.97;;;;;;;-4.32;87.95;93442.78;5071534;28;20123;-83
2022/01/23 11:56:47;;;;;;;17.27;5.90;;;;;;;-4.00;88.78;93449.63;5084433;28;20070;-84
2022/01/23 11:59:21;;;;;;;12.32;5.35;;;;;;;-3.93;87.30;93445.72;5070722;28;20037;-85
2022/01/23 12:01:51;;;;;;;13.40;6.13;;;;;;;-4.32;85.54;93413.50;5070306;28;20051;-85
2022/01/23 12:04:20;;;;;;;9.52;4.82;;;;;;;-3.89;86.19;93431.25;5071039;28;20511;-84
2022/01/23 12:07:20;;;;;;;18.60;6.78;;;;;;;-3.70;85.38;93428.13;5070430;28;20477;-84
2022/01/23 12:10:14;;;;;;;16.45;5.65;;;;;;;-3.51;85.62;93442.59;5070977;28;20049;-84
2022/01/23 12:12:45;;;;;;;16.60;8.10;;;;;;;-3.36;86.31;93449.84;5062992;28;20090;-84
2022/01/23 12:18:16;;;;;;;21.00;7.75;;;;;;;-3.72;87.17;93440.00;5070957;28;20174;-86
2022/01/23 12:20:44;;;;;;;18.17;7.28;;;;;;;-3.80;87.79;93442.31;5070935;28;20045;-83
2022/01/23 12:23:11;;;;;;;13.45;7.50;;;;;;;-3.81;87.91;93430.66;5070825;28;20102;-83
2022/01/23 12:25:44;;;;;;;15.93;6.97;;;;;;;-3.82;86.68;93439.09;5070258;28;20048;-83
2022/01/23 12:28:20;;;;;;;20.33;5.38;;;;;;;-4.00;86.90;93436.25;5070991;28;20060;-83
2022/01/23 12:30:51;;;;;;;15.57;5.80;;;;;;;-4.30;88.94;93428.44;5071282;28;20384;-82
2022/01/23 12:33:21;;;;;;;16.63;7.13;;;;;;;-4.27;88.43;93424.91;5071004;28;20140;-84
2022/01/23 12:35:51;;;;;;;17.45;7.97;;;;;;;-4.52;88.23;93426.69;5070868;28;20052;-84
2022/01/23 12:38:19;;;;;;;9.25;5.25;;;;;;;-4.66;89.24;93438.53;5070534;28;20098;-82
2022/01/23 12:40:48;;;;;;;13.25;5.72;;;;;;;-4.58;89.30;93440.50;5070729;28;20052;-82
2022/01/23 12:43:21;;;;;;;8.77;4.63;;;;;;;-4.69;88.33;93436.25;5070782;28;20052;-83
2022/01/23 12:45:53;;;;;;;7.47;4.30;;;;;;;-4.83;88.69;93437.25;5069659;28;20094;-85
2022/01/23 12:48:53;;;;;;;12.82;5.78;;;;;;;-4.70;89.43;93435.47;5070504;28;20090;-86
2022/01/23 12:51:41;;;;;;;14.52;5.68;;;;;;;-4.61;89.09;93431.47;5070820;28;20088;-83
2022/01/23 12:54:28;;;;;;;7.60;4.38;;;;;;;-4.81;89.78;93430.44;5083660;28;20046;-84
2022/01/23 12:56:57;;;;;;;10.25;5.55;;;;;;;-4.98;89.83;93434.13;5090235;28;20051;-83
2022/01/23 12:59:31;;;;;;;10.68;4.50;;;;;;;-5.17;91.19;93435.44;5090363;28;20048;-83
2022/01/23 13:02:05;;;;;;;9.57;4.72;;;;;;;-5.11;92.30;93432.50;5074351;28;20047;-88
2022/01/23 13:04:34;;;;;;;13.00;5.15;;;;;;;-5.07;91.90;93429.75;5064382;28;20079;-85
2022/01/23 13:07:10;;;;;;;18.77;7.00;;;;;;;-4.94;92.09;93430.50;5090674;28;20048;-84
2022/01/23 13:09:44;;;;;;;20.20;6.68;;;;;;;-4.91;92.22;93430.28;5090636;28;20090;-85
2022/01/23 13:12:15;;;;;;;22.05;7.63;;;;;;;-4.90;91.52;93431.06;5090615;28;20048;-85
2022/01/23 13:14:58;;;;;;;13.98;6.90;;;;;;;-5.06;92.30;93429.66;5091016;28;20040;-83
2022/01/23 13:17:48;;;;;;;12.68;6.38;;;;;;;-5.15;91.27;93417.78;5090872;28;20509;-84
2022/01/23 13:31:40;;;;;;;10.10;5.80;;;;;;;-5.07;92.90;93434.78;5045280;28;20465;-87
2022/01/23 13:34:30;;;;;;;8.10;4.88;;;;;;;-5.12;90.89;93427.59;5080685;28;20052;-84
2022/01/23 13:37:00;;;;;;;10.20;4.32;;;;;;;-5.09;92.33;93412.38;5082246;28;20048;-84
2022/01/23 13:39:30;;;;;;;10.43;4.65;;;;;;;-5.29;89.35;93387.00;5090615;28;20055;-85
2022/01/23 13:42:41;;;;;;;14.18;6.10;;;;;;;-5.10;91.90;93408.25;5090430;28;21090;-84
2022/01/23 13:48:22;;;;;;;9.60;5.28;;;;;;;-4.85;91.18;93432.31;5090617;28;20121;-85
2022/01/23 13:54:17;;;;;;;9.75;5.13;;;;;;;-4.86;90.67;93429.97;5089708;28;20052;-87
2022/01/23 13:59:37;;;;;;;13.85;6.85;;;;;;;-4.61;90.61;93436.50;5093780;28;20047;-84
2022/01/23 14:02:18;;;;;;;11.00;6.25;;;;;;;-4.57;90.91;93427.81;5055447;28;20049;-88
2022/01/23 14:04:47;;;;;;;11.18;5.85;;;;;;;-4.90;90.99;93423.56;5073565;28;20052;-84
2022/01/23 14:07:20;;;;;;;9.27;4.82;;;;;;;-4.79;89.89;93427.78;5073446;28;20055;-84
2022/01/23 14:09:47;;;;;;;15.23;8.10;;;;;;;-4.85;91.27;93411.50;5075944;28;21167;-84
2022/01/23 14:12:15;;;;;;;17.63;8.45;;;;;;;-4.77;91.98;93411.72;5090660;28;20056;-86
2022/01/23 14:14:55;;;;;;;11.85;6.43;;;;;;;-4.70;92.22;93417.09;5093429;28;20521;-84
2022/01/23 14:17:24;;;;;;;7.72;4.35;;;;;;;-4.90;90.65;93424.38;5093535;28;20083;-83
2022/01/23 14:19:59;;;;;;;12.32;6.80;;;;;;;-5.34;91.46;93369.00;5093194;28;20055;-86
2022/01/23 14:22:34;;;;;;;12.32;6.32;;;;;;;-5.02;92.31;93420.22;5093285;28;20052;-88
2022/01/23 14:25:16;;;;;;;12.77;6.03;;;;;;;-5.04;91.65;93422.03;5093540;28;20060;-84
2022/01/23 14:27:45;;;;;;;15.73;6.57;;;;;;;-5.15;92.15;93435.31;5093346;28;20056;-86
2022/01/23 14:30:15;;;;;;;15.85;6.60;;;;;;;-5.06;92.96;93421.38;5093183;28;20087;-85